Time;durP1;ratioP1;P1;durP2;ratioP2;P2;SDS_P1;SDS_P2;PMS_P1;PMS_P2;Temp;Humidity;BMP_temperature;BMP_pressure;BME280_temperature;BME280_humidity;BME280_pressure;Samples;Min_cycle;Max_cycle;Signal;HPM_P1;HPM_P2
2023/09/19 00:01:45;;;;;;;16.85;7.63;;;;;;;12.37;92.24;100024.72;5076166;28;20056;-55
2023/09/19 00:04:12;;;;;;;17.63;8.23;;;;;;;12.35;91.28;100018.72;5075577;28;20040;-50
2023/09/19 00:06:39;;;;;;;16.88;8.32;;;;;;;12.37;90.73;100030.78;5073132;28;20482;-51
2023/09/19 00:09:10;;;;;;;13.75;8.15;;;;;;;12.38;90.27;100024.69;5055628;28;20064;-51
2023/09/19 00:11:35;;;;;;;14.00;8.38;;;;;;;12.10;89.91;99979.66;5092017;28;20044;-51
2023/09/19 00:14:01;;;;;;;12.20;7.57;;;;;;;12.41;89.27;100032.38;5065285;28;20036;-54
2023/09/19 00:16:27;;;;;;;14.25;7.70;;;;;;;12.43;88.98;100027.97;5072673;28;20043;-51
2023/09/19 00:18:53;;;;;;;17.40;7.50;;;;;;;12.44;88.15;100024.47;5075338;28;20032;-55
2023/09/19 00:21:22;;;;;;;12.20;6.93;;;;;;;12.40;87.96;100014.19;5079262;28;20131;-52
2023/09/19 00:23:47;;;;;;;11.68;7.75;;;;;;;12.36;87.61;100023.00;5072659;28;20568;-54
2023/09/19 00:26:13;;;;;;;11.27;7.15;;;;;;;12.36;87.25;100023.88;5071366;28;20048;-53
2023/09/19 00:28:41;;;;;;;13.07;6.68;;;;;;;12.39;86.79;100028.13;5073030;28;20115;-55
2023/09/19 00:31:09;;;;;;;13.38;7.95;;;;;;;12.25;86.54;99989.50;5079289;28;20040;-50
2023/09/19 00:33:36;;;;;;;12.65;7.43;;;;;;;12.41;86.48;100015.88;5075560;28;20039;-50
2023/09/19 00:36:05;;;;;;;12.85;7.55;;;;;;;12.25;86.03;99989.50;5079847;28;20163;-49
2023/09/19 00:38:31;;;;;;;14.00;7.40;;;;;;;12.26;85.99;99993.81;5070057;28;20085;-53
2023/09/19 00:40:59;;;;;;;13.40;7.50;;;;;;;12.41;85.39;100021.09;5072151;28;20040;-51
2023/09/19 00:43:27;;;;;;;13.73;7.50;;;;;;;12.36;85.37;100025.63;5078133;28;20078;-52
2023/09/19 00:45:55;;;;;;;12.25;6.80;;;;;;;12.16;85.26;99993.31;5075618;28;20046;-52
2023/09/19 00:48:22;;;;;;;13.88;6.68;;;;;;;12.16;85.14;99990.72;5057678;28;20090;-49
2023/09/19 00:50:49;;;;;;;16.17;7.65;;;;;;;12.30;85.06;100017.13;5062466;28;20032;-50
2023/09/19 00:53:22;;;;;;;11.70;6.88;;;;;;;12.29;84.75;100027.63;5071855;28;20095;-47
2023/09/19 00:55:49;;;;;;;12.52;7.45;;;;;;;12.26;84.62;100020.75;5076313;28;20067;-51
2023/09/19 00:58:17;;;;;;;14.05;7.28;;;;;;;12.25;84.77;100024.25;5076854;28;20043;-54
2023/09/19 01:00:44;;;;;;;11.40;7.40;;;;;;;12.24;84.58;100024.34;5054571;28;20100;-49
2023/09/19 01:03:13;;;;;;;12.32;6.82;;;;;;;12.24;84.25;100019.97;5073500;28;20048;-50
2023/09/19 01:05:41;;;;;;;10.90;6.47;;;;;;;12.24;84.25;100017.38;5063047;28;20159;-50
2023/09/19 01:08:07;;;;;;;13.20;6.53;;;;;;;12.27;83.89;100017.25;5075501;28;20174;-50
2023/09/19 01:10:33;;;;;;;15.20;7.60;;;;;;;12.28;83.73;100015.50;5062853;28;20503;-52
2023/09/19 01:12:59;;;;;;;11.45;6.63;;;;;;;12.27;83.65;100014.63;5072704;28;20035;-51
2023/09/19 01:15:29;;;;;;;14.18;6.78;;;;;;;12.25;83.70;100011.22;5073605;28;20516;-53
2023/09/19 01:18:20;;;;;;;9.57;6.88;;;;;;;12.22;83.45;100015.69;5094876;28;20043;-54
2023/09/19 01:20:54;;;;;;;13.68;7.28;;;;;;;12.18;83.66;100011.50;5071425;28;20089;-53
2023/09/19 01:23:55;;;;;;;12.40;7.65;;;;;;;12.18;83.71;100003.69;5074025;28;20131;-50
2023/09/19 01:26:47;;;;;;;14.10;7.88;;;;;;;12.17;83.59;100012.41;5078696;28;20036;-49
2023/09/19 01:29:39;;;;;;;16.58;7.60;;;;;;;12.20;83.17;100015.75;5077180;28;20424;-54
2023/09/19 01:32:07;;;;;;;12.77;8.68;;;;;;;12.22;82.94;100010.50;5060503;28;20044;-53
2023/09/19 01:34:52;;;;;;;13.40;7.78;;;;;;;12.04;83.22;99978.09;5050925;28;20051;-55
2023/09/19 01:37:20;;;;;;;11.32;7.22;;;;;;;12.28;83.20;100010.28;5060571;28;20043;-51
2023/09/19 01:40:02;;;;;;;14.45;7.63;;;;;;;12.17;82.92;99981.13;5072243;28;20051;-52
2023/09/19 01:43:05;;;;;;;12.18;7.45;;;;;;;12.34;82.81;100010.06;5059761;28;20044;-52
2023/09/19 01:45:53;;;;;;;16.75;8.27;;;;;;;12.35;82.62;100005.69;5052384;28;20558;-54
2023/09/19 01:48:18;;;;;;;13.85;8.18;;;;;;;12.35;82.68;99997.88;5078374;28;20052;-54
2023/09/19 01:50:55;;;;;;;14.52;9.05;;;;;;;12.36;82.42;100000.41;5055773;28;20055;-55
2023/09/19 01:53:40;;;;;;;11.68;7.63;;;;;;;12.36;82.40;100000.41;5091156;28;20068;-53
2023/09/19 01:56:12;;;;;;;17.48;8.15;;;;;;;12.25;82.39;99966.91;5049692;28;20533;-52
2023/09/19 01:58:47;;;;;;;12.20;8.18;;;;;;;12.30;81.89;99972.78;5069752;28;20078;-50
2023/09/19 02:01:22;;;;;;;13.27;7.93;;;;;;;12.14;82.01;99931.75;5069493;28;20032;-51
2023/09/19 02:03:49;;;;;;;15.30;7.90;;;;;;;12.30;81.60;99964.13;5053677;28;20055;-51
2023/09/19 02:06:17;;;;;;;10.80;7.75;;;;;;;12.43;81.68;99988.00;5077977;28;20101;-52
2023/09/19 02:08:44;;;;;;;13.02;8.05;;;;;;;12.39;81.68;99976.84;5062052;28;20523;-51
2023/09/19 02:11:14;;;;;;;13.65;7.95;;;;;;;12.35;81.77;99983.09;5051606;28;20036;-50
2023/09/19 02:13:41;;;;;;;14.02;8.77;;;;;;;12.32;81.93;99977.97;5050826;28;20068;-52
2023/09/19 02:16:10;;;;;;;13.73;7.97;;;;;;;12.30;81.92;99972.78;5093649;28;20035;-52
2023/09/19 02:18:36;;;;;;;12.97;8.17;;;;;;;12.28;81.87;99979.00;5074285;28;20040;-55
2023/09/19 02:21:12;;;;;;;14.50;8.15;;;;;;;12.24;82.29;99973.06;5075797;28;20036;-54
2023/09/19 02:23:38;;;;;;;14.68;8.05;;;;;;;12.18;82.35;99967.19;5070518;28;20561;-54
2023/09/19 02:26:07;;;;;;;13.80;9.00;;;;;;;12.14;82.42;99960.41;5066934;28;20044;-54
2023/09/19 02:28:34;;;;;;;14.80;8.52;;;;;;;12.11;82.79;99965.72;5079797;28;20813;-52
2023/09/19 02:31:00;;;;;;;14.15;8.75;;;;;;;12.02;82.68;99947.81;5066712;28;20145;-54
2023/09/19 02:33:26;;;;;;;12.27;8.05;;;;;;;12.07;83.01;99961.53;5069625;28;20148;-53
2023/09/19 02:36:00;;;;;;;14.10;8.55;;;;;;;11.85;82.83;99931.03;5064910;28;20044;-53
2023/09/19 02:38:27;;;;;;;13.35;8.38;;;;;;;11.99;83.54;99961.78;5078262;28;20041;-51
2023/09/19 02:40:55;;;;;;;14.05;8.95;;;;;;;11.93;83.34;99963.78;5058786;28;20175;-53
2023/09/19 02:43:22;;;;;;;14.32;8.65;;;;;;;11.86;83.79;99955.31;5076637;28;20531;-50
2023/09/19 02:45:49;;;;;;;13.93;8.73;;;;;;;11.82;83.94;99959.78;5074880;28;20036;-53
2023/09/19 02:48:18;;;;;;;13.63;8.38;;;;;;;11.80;83.85;99965.94;5093303;28;20042;-50
2023/09/19 02:50:44;;;;;;;15.32;9.23;;;;;;;11.72;84.22;99963.56;5076126;28;20570;-49
2023/09/19 02:53:13;;;;;;;11.93;7.97;;;;;;;11.72;84.72;99963.56;5075143;28;20098;-51
2023/09/19 02:55:42;;;;;;;13.82;8.20;;;;;;;11.74;84.98;99963.56;5073220;28;20565;-51
2023/09/19 02:58:11;;;;;;;15.95;8.40;;;;;;;11.74;85.09;99964.41;5044678;28;20040;-50
2023/09/19 03:00:38;;;;;;;12.68;7.97;;;;;;;11.77;85.05;99973.88;5071655;28;20071;-51
2023/09/19 03:03:06;;;;;;;12.05;7.97;;;;;;;11.82;84.67;99970.22;5054696;28;20067;-51
2023/09/19 03:05:33;;;;;;;13.40;7.72;;;;;;;11.84;84.70;99968.38;5068887;28;20171;-51
2023/09/19 03:08:02;;;;;;;11.27;7.72;;;;;;;11.89;85.02;99970.84;5075401;28;20049;-51
2023/09/19 03:10:30;;;;;;;11.63;8.02;;;;;;;11.73;84.37;99938.41;5049507;28;20063;-53
2023/09/19 03:13:01;;;;;;;17.25;8.15;;;;;;;11.93;84.64;99976.81;5054873;28;20122;-52
2023/09/19 03:15:28;;;;;;;10.40;7.05;;;;;;;11.93;84.13;99974.19;5071859;28;20122;-54
2023/09/19 03:17:54;;;;;;;11.68;7.72;;;;;;;11.96;84.23;99968.88;5072881;28;20036;-53
2023/09/19 03:20:22;;;;;;;12.23;7.73;;;;;;;11.97;83.71;99975.78;5065637;28;20040;-56
2023/09/19 03:22:51;;;;;;;11.20;7.47;;;;;;;11.81;83.98;99947.66;5069019;28;20037;-56
2023/09/19 03:25:19;;;;;;;9.63;7.00;;;;;;;11.99;83.84;99972.19;5066837;28;20047;-55
2023/09/19 03:27:48;;;;;;;13.10;7.57;;;;;;;12.01;83.65;99974.75;5052566;28;20036;-50
2023/09/19 03:30:14;;;;;;;14.75;8.25;;;;;;;12.04;83.34;99978.09;5066711;28;20036;-54
2023/09/19 03:32:46;;;;;;;12.90;8.00;;;;;;;11.75;83.38;99920.97;5069918;28;20056;-54
2023/09/19 03:35:14;;;;;;;17.45;7.97;;;;;;;12.09;83.19;99977.97;5066526;28;20049;-52
2023/09/19 03:37:42;;;;;;;11.73;8.20;;;;;;;12.11;83.18;99971.78;5068157;28;20321;-52
2023/09/19 03:40:10;;;;;;;13.40;8.05;;;;;;;12.10;82.97;99970.06;5071962;28;20041;-56
2023/09/19 03:42:40;;;;;;;14.65;8.13;;;;;;;12.14;82.66;99970.84;5066685;28;20098;-53
2023/09/19 03:45:12;;;;;;;15.95;8.40;;;;;;;12.17;82.56;99968.97;5071130;28;20052;-55
2023/09/19 03:47:40;;;;;;;13.82;8.50;;;;;;;11.92;82.47;99926.44;5065527;28;20536;-55
2023/09/19 03:50:10;;;;;;;10.32;7.97;;;;;;;11.92;82.17;99923.00;5072969;28;20126;-56
2023/09/19 03:52:36;;;;;;;15.07;8.60;;;;;;;12.16;82.17;99964.63;5075123;28;20082;-53
2023/09/19 03:55:04;;;;;;;16.10;9.65;;;;;;;12.01;82.24;99941.75;5055013;28;20041;-53
2023/09/19 03:57:31;;;;;;;16.93;9.23;;;;;;;12.12;82.05;99957.00;5078664;28;20105;-53
2023/09/19 03:59:57;;;;;;;13.35;9.25;;;;;;;12.15;82.03;99965.53;5072346;28;20302;-56
2023/09/19 04:02:24;;;;;;;15.98;8.57;;;;;;;12.16;82.31;99961.19;5071014;28;21491;-54
2023/09/19 04:04:51;;;;;;;12.95;9.35;;;;;;;12.18;81.87;99960.22;5057992;28;20078;-55
2023/09/19 04:07:22;;;;;;;13.63;8.98;;;;;;;12.07;81.68;99933.72;5067412;28;20063;-53
2023/09/19 04:09:49;;;;;;;12.57;7.93;;;;;;;12.22;82.14;99954.00;5071558;28;20047;-53
2023/09/19 04:12:17;;;;;;;14.88;8.85;;;;;;;12.08;81.87;99934.56;5061817;28;20052;-54
2023/09/19 04:14:44;;;;;;;15.85;8.48;;;;;;;12.29;81.81;99947.66;5078896;28;20036;-54
2023/09/19 04:17:10;;;;;;;14.68;8.73;;;;;;;12.33;81.60;99951.00;5077820;28;20086;-54
2023/09/19 04:19:37;;;;;;;20.45;8.45;;;;;;;12.37;81.65;99954.31;5086760;28;20032;-53
2023/09/19 04:22:05;;;;;;;12.32;8.15;;;;;;;12.41;81.67;99945.47;5058502;28;20447;-55
2023/09/19 04:24:32;;;;;;;14.73;8.80;;;;;;;12.43;81.60;99946.28;5062402;28;20036;-54
2023/09/19 04:26:59;;;;;;;15.05;8.98;;;;;;;12.46;81.19;99946.16;5078064;28;20044;-55
2023/09/19 04:29:29;;;;;;;13.95;8.77;;;;;;;12.36;81.21;99913.50;5075134;28;20126;-55
2023/09/19 04:31:58;;;;;;;15.10;9.27;;;;;;;12.55;81.03;99930.19;5073173;28;20123;-52
2023/09/19 04:34:25;;;;;;;13.05;8.40;;;;;;;12.32;80.89;99902.34;5065397;28;20470;-54
2023/09/19 04:36:51;;;;;;;13.23;8.68;;;;;;;12.60;80.88;99936.91;5073474;28;20036;-50
2023/09/19 04:39:17;;;;;;;21.95;8.88;;;;;;;12.64;80.90;99932.41;5071761;28;20045;-54
2023/09/19 04:41:44;;;;;;;14.20;8.50;;;;;;;12.67;80.56;99929.69;5072650;28;20040;-57
2023/09/19 04:44:10;;;;;;;20.73;9.20;;;;;;;12.72;80.32;99935.56;5076495;28;20032;-53
2023/09/19 04:46:36;;;;;;;77.90;11.93;;;;;;;12.81;80.10;99930.00;5063162;28;20427;-56
2023/09/19 04:49:02;;;;;;;23.33;9.35;;;;;;;12.91;79.94;99935.72;5068714;28;20051;-53
2023/09/19 04:51:33;;;;;;;17.23;9.13;;;;;;;12.94;79.69;99932.97;5069452;28;20047;-56
2023/09/19 04:54:00;;;;;;;15.30;9.18;;;;;;;12.95;79.45;99934.66;5073394;28;20036;-57
2023/09/19 04:56:28;;;;;;;18.23;8.95;;;;;;;12.77;79.35;99901.50;5063866;28;20047;-55
2023/09/19 04:58:54;;;;;;;15.73;9.57;;;;;;;12.99;79.40;99934.47;5066947;28;20028;-54
2023/09/19 05:01:22;;;;;;;22.65;9.80;;;;;;;12.78;78.88;99897.94;5069590;28;20041;-56
2023/09/19 05:03:52;;;;;;;18.92;9.07;;;;;;;13.10;78.96;99934.06;5064082;28;20122;-55
2023/09/19 05:06:21;;;;;;;14.85;9.52;;;;;;;13.18;78.74;99926.81;5063153;28;20095;-56
2023/09/19 05:08:50;;;;;;;16.17;8.77;;;;;;;13.27;78.59;99929.03;5077637;28;20032;-52
2023/09/19 05:11:19;;;;;;;14.82;9.30;;;;;;;13.35;78.06;99924.31;5073330;28;20445;-52
2023/09/19 05:13:45;;;;;;;14.73;8.98;;;;;;;13.30;78.05;99905.38;5063653;28;20045;-55
2023/09/19 05:16:11;;;;;;;15.65;9.02;;;;;;;13.40;77.74;99905.84;5069461;28;20094;-50
2023/09/19 05:18:36;;;;;;;19.58;9.98;;;;;;;13.52;77.45;99907.94;5077382;28;20035;-51
2023/09/19 05:21:03;;;;;;;15.15;9.93;;;;;;;13.74;76.92;99916.56;5075793;28;20919;-51
2023/09/19 05:23:28;;;;;;;18.83;10.27;;;;;;;13.86;76.53;99920.41;5080735;28;20086;-55
2023/09/19 05:25:56;;;;;;;17.52;10.43;;;;;;;13.97;76.19;99923.41;5080986;28;20559;-53
2023/09/19 05:28:23;;;;;;;19.63;10.25;;;;;;;14.08;75.88;99923.75;5078322;28;20044;-52
2023/09/19 05:30:49;;;;;;;21.35;10.95;;;;;;;14.20;75.68;99909.28;5075065;28;20037;-56
2023/09/19 05:33:15;;;;;;;16.92;10.55;;;;;;;14.15;74.94;99885.97;5075958;28;20036;-50
2023/09/19 05:35:41;;;;;;;16.30;9.73;;;;;;;14.46;74.53;99914.19;5080977;28;20067;-49
2023/09/19 05:38:12;;;;;;;19.75;11.15;;;;;;;14.52;73.98;99915.69;5078563;28;20044;-50
2023/09/19 05:40:42;;;;;;;18.20;9.55;;;;;;;14.52;73.89;99913.06;5052985;28;20036;-54
2023/09/19 05:43:08;;;;;;;15.20;9.60;;;;;;;14.51;73.52;99911.38;5089535;28;20044;-53
2023/09/19 05:45:36;;;;;;;22.23;9.52;;;;;;;14.60;73.58;99914.41;5077040;28;20044;-53
2023/09/19 05:48:15;;;;;;;26.83;10.77;;;;;;;14.78;73.25;99912.69;5079198;28;20043;-53
2023/09/19 05:50:42;;;;;;;21.10;11.00;;;;;;;14.71;72.72;99888.56;5077075;28;20628;-49
2023/09/19 05:53:11;;;;;;;20.98;11.85;;;;;;;14.91;72.65;99907.72;5080096;28;20055;-49
2023/09/19 05:55:38;;;;;;;22.25;10.55;;;;;;;15.09;72.05;99906.81;5073906;28;20050;-53
2023/09/19 05:58:04;;;;;;;19.13;11.13;;;;;;;15.11;71.97;99904.97;5068836;28;20123;-51
2023/09/19 06:00:31;;;;;;;20.05;11.77;;;;;;;15.19;71.42;99908.03;5084129;28;20147;-51
2023/09/19 06:02:59;;;;;;;22.90;11.00;;;;;;;15.50;70.90;99915.22;5076860;28;20048;-53
2023/09/19 06:05:26;;;;;;;18.63;10.05;;;;;;;16.41;69.81;99910.41;5074592;28;20044;-50
2023/09/19 06:07:53;;;;;;;18.25;9.52;;;;;;;17.73;66.85;99910.72;5076260;28;20083;-55
2023/09/19 06:10:20;;;;;;;18.88;9.23;;;;;;;18.94;64.01;99911.00;5075647;28;20036;-57
2023/09/19 06:12:48;;;;;;;31.67;9.80;;;;;;;19.95;61.24;99893.66;5068549;28;20127;-51
2023/09/19 06:15:15;;;;;;;17.23;8.88;;;;;;;20.80;58.22;99898.13;5066290;28;20524;-56
2023/09/19 06:17:46;;;;;;;15.93;8.82;;;;;;;21.70;55.46;99901.03;5064805;28;20102;-49
2023/09/19 06:20:14;;;;;;;16.27;9.45;;;;;;;22.37;53.35;99903.72;5066523;28;20044;-50
2023/09/19 06:22:45;;;;;;;17.77;9.52;;;;;;;23.17;51.31;99902.47;5038894;28;20144;-52
2023/09/19 06:25:19;;;;;;;14.68;9.38;;;;;;;23.91;49.22;99889.16;5068994;28;20439;-52
2023/09/19 06:27:53;;;;;;;16.48;10.23;;;;;;;24.46;46.93;99890.50;5063491;28;20040;-54
2023/09/19 06:30:21;;;;;;;14.48;9.50;;;;;;;25.06;45.89;99892.19;5065474;28;20056;-53
2023/09/19 06:32:48;;;;;;;18.52;9.55;;;;;;;25.45;44.29;99895.66;5066977;28;20136;-50
2023/09/19 06:35:16;;;;;;;15.40;9.80;;;;;;;25.97;43.04;99885.44;5065509;28;20045;-52
2023/09/19 06:37:43;;;;;;;16.65;9.70;;;;;;;26.46;42.13;99895.78;5069748;28;20535;-53
2023/09/19 06:40:14;;;;;;;16.10;10.27;;;;;;;26.65;41.16;99872.66;5049882;28;20143;-55
2023/09/19 06:42:42;;;;;;;22.05;10.07;;;;;;;26.75;40.41;99892.09;5067705;28;20127;-54
2023/09/19 06:45:11;;;;;;;19.50;10.00;;;;;;;26.23;40.57;99904.31;5064250;28;20044;-52
2023/09/19 06:47:37;;;;;;;17.25;10.35;;;;;;;26.30;40.64;99900.94;5056268;28;20620;-55
2023/09/19 06:50:04;;;;;;;19.05;10.00;;;;;;;26.76;39.91;99899.97;5065735;28;20142;-56
2023/09/19 06:52:30;;;;;;;15.43;9.50;;;;;;;27.55;38.61;99900.06;5063267;28;20040;-57
2023/09/19 06:54:57;;;;;;;21.23;10.55;;;;;;;27.06;38.90;99893.44;5072510;28;20051;-56
2023/09/19 06:57:23;;;;;;;17.58;10.23;;;;;;;26.03;39.73;99890.19;5068543;28;20048;-53
2023/09/19 06:59:49;;;;;;;15.38;11.57;;;;;;;25.13;41.30;99887.13;5065762;28;20526;-52
2023/09/19 07:02:14;;;;;;;16.92;10.85;;;;;;;24.56;42.41;99883.38;5067895;28;20068;-60
2023/09/19 07:04:40;;;;;;;16.67;10.73;;;;;;;23.68;43.54;99877.84;5064318;28;21493;-58
2023/09/19 07:07:08;;;;;;;21.73;11.52;;;;;;;22.80;45.15;99886.09;5067574;28;20503;-53
2023/09/19 07:09:34;;;;;;;18.90;11.20;;;;;;;22.47;46.04;99882.63;5069823;28;20066;-54
2023/09/19 07:12:00;;;;;;;18.95;11.27;;;;;;;22.04;46.90;99882.53;5049961;28;20051;-57
2023/09/19 07:14:27;;;;;;;18.80;12.10;;;;;;;21.50;47.97;99878.75;5042775;28;20037;-59
2023/09/19 07:16:54;;;;;;;18.30;10.93;;;;;;;21.25;48.57;99868.31;5061795;28;20052;-58
2023/09/19 07:19:20;;;;;;;21.08;11.98;;;;;;;20.99;49.46;99869.38;5081530;28;20041;-60
2023/09/19 07:21:47;;;;;;;17.67;11.25;;;;;;;21.33;49.18;99880.97;5070679;28;20411;-60
2023/09/19 07:24:13;;;;;;;19.50;11.65;;;;;;;21.17;49.45;99881.28;5067427;28;20524;-57
2023/09/19 07:26:45;;;;;;;16.77;11.55;;;;;;;20.59;50.68;99877.59;5052431;28;20078;-55
2023/09/19 07:29:10;;;;;;;22.08;12.38;;;;;;;20.05;52.08;99877.06;5049933;28;20076;-55
2023/09/19 07:31:36;;;;;;;21.83;12.25;;;;;;;19.75;53.05;99872.13;5069585;28;20072;-55
2023/09/19 07:34:03;;;;;;;17.90;11.48;;;;;;;19.93;53.20;99864.75;5068654;28;20055;-55
2023/09/19 07:36:30;;;;;;;22.38;11.00;;;;;;;20.39;52.49;99867.63;5072219;28;20089;-52
2023/09/19 07:38:57;;;;;;;21.33;12.25;;;;;;;20.64;51.99;99867.53;5069548;28;20570;-56
2023/09/19 07:41:25;;;;;;;25.95;12.05;;;;;;;20.63;51.58;99820.94;5074049;28;20040;-56
2023/09/19 07:43:51;;;;;;;19.10;12.68;;;;;;;21.71;50.29;99859.53;5073622;28;20684;-52
2023/09/19 07:46:17;;;;;;;17.30;11.70;;;;;;;22.14;49.41;99862.34;5068812;28;20052;-55
2023/09/19 07:48:47;;;;;;;21.70;11.40;;;;;;;23.62;47.29;99862.44;5069190;28;20070;-53
2023/09/19 07:51:13;;;;;;;24.45;12.27;;;;;;;24.27;45.57;99859.41;5071519;28;20083;-50
2023/09/19 07:53:39;;;;;;;17.95;11.45;;;;;;;24.47;45.44;99865.59;5069330;28;20132;-49
2023/09/19 07:56:07;;;;;;;20.65;11.68;;;;;;;24.56;45.01;99869.25;5071678;28;20128;-52
2023/09/19 07:58:33;;;;;;;18.38;12.77;;;;;;;23.27;45.68;99851.28;5045113;28;20046;-55
2023/09/19 08:01:07;;;;;;;25.90;12.77;;;;;;;22.14;48.00;99835.84;5070588;28;20028;-55
2023/09/19 08:03:43;;;;;;;19.88;12.77;;;;;;;21.71;49.19;99847.13;5069434;28;20455;-55
2023/09/19 08:06:10;;;;;;;19.08;12.82;;;;;;;21.37;50.07;99848.03;5071707;28;20474;-51
2023/09/19 08:08:40;;;;;;;19.20;12.48;;;;;;;21.09;50.75;99858.00;5068920;28;20043;-54
2023/09/19 08:11:11;;;;;;;17.77;13.00;;;;;;;20.70;51.96;99851.25;5071878;28;20040;-52
2023/09/19 08:13:43;;;;;;;17.67;13.13;;;;;;;20.26;53.21;99854.41;5071121;28;20036;-55
2023/09/19 08:16:14;;;;;;;22.55;13.88;;;;;;;19.83;54.32;99853.16;5063329;28;20170;-62
2023/09/19 08:18:41;;;;;;;22.08;13.18;;;;;;;19.41;55.45;99841.09;5064992;28;20056;-60
2023/09/19 08:21:10;;;;;;;23.00;13.07;;;;;;;19.26;56.24;99850.84;5047098;28;20518;-61
2023/09/19 08:23:38;;;;;;;21.77;13.30;;;;;;;19.04;57.02;99851.47;5070743;28;20028;-61
2023/09/19 08:26:08;;;;;;;21.67;12.70;;;;;;;18.89;57.33;99843.72;5069597;28;20044;-60
2023/09/19 08:28:35;;;;;;;18.67;12.70;;;;;;;18.68;58.09;99838.09;5064397;28;20041;-60
2023/09/19 08:31:04;;;;;;;23.40;12.93;;;;;;;18.45;59.09;99842.16;5029413;28;20424;-64
2023/09/19 08:33:35;;;;;;;22.65;13.25;;;;;;;18.38;59.47;99829.47;5070216;28;20508;-63
2023/09/19 08:36:04;;;;;;;24.73;12.95;;;;;;;18.41;59.59;99830.16;5061598;28;20044;-60
2023/09/19 08:38:35;;;;;;;21.30;12.80;;;;;;;18.31;60.15;99828.19;5059939;28;20124;-58
2023/09/19 08:41:05;;;;;;;21.90;13.50;;;;;;;18.16;60.70;99828.19;5047155;28;20432;-60
2023/09/19 08:43:34;;;;;;;21.73;13.43;;;;;;;18.11;60.91;99822.38;5049733;28;20040;-57
2023/09/19 08:46:08;;;;;;;26.63;12.20;;;;;;;18.17;60.85;99818.53;5071560;28;20074;-60
2023/09/19 08:48:34;;;;;;;24.80;12.55;;;;;;;18.17;60.97;99819.38;5058191;28;20431;-58
2023/09/19 08:51:03;;;;;;;23.73;12.88;;;;;;;18.07;61.38;99818.25;5067645;28;20094;-64
2023/09/19 08:53:54;;;;;;;30.50;13.38;;;;;;;18.01;61.31;99794.13;5069614;28;20036;-67
2023/09/19 08:56:22;;;;;;;28.98;13.05;;;;;;;18.20;61.08;99813.94;5068344;28;20036;-60
2023/09/19 08:58:53;;;;;;;24.25;13.32;;;;;;;18.18;61.01;99793.91;5069985;28;20093;-60
2023/09/19 09:01:24;;;;;;;27.45;12.30;;;;;;;18.52;60.72;99818.91;5049018;28;20098;-62
2023/09/19 09:03:54;;;;;;;28.90;12.63;;;;;;;18.70;60.33;99820.38;5068248;28;20039;-58
2023/09/19 09:06:21;;;;;;;26.27;12.32;;;;;;;18.84;59.80;99815.03;5063294;28;20098;-66
2023/09/19 09:08:50;;;;;;;24.63;12.48;;;;;;;19.05;59.72;99821.50;5062899;28;20576;-64
2023/09/19 09:11:17;;;;;;;28.05;12.10;;;;;;;19.19;59.65;99823.25;5068557;28;20052;-64
2023/09/19 09:13:46;;;;;;;28.27;12.43;;;;;;;19.24;59.28;99820.28;5072263;28;20046;-54
2023/09/19 09:16:13;;;;;;;24.77;11.98;;;;;;;19.02;59.33;99811.19;5053334;28;20136;-65
2023/09/19 09:18:40;;;;;;;19.50;11.32;;;;;;;19.13;59.28;99823.66;5067059;28;20125;-61
2023/09/19 09:21:06;;;;;;;21.80;11.25;;;;;;;19.03;59.29;99822.56;5081794;28;20561;-56
2023/09/19 09:23:33;;;;;;;21.08;12.50;;;;;;;19.01;59.43;99827.94;5052738;28;20044;-56
2023/09/19 09:26:02;;;;;;;22.58;12.00;;;;;;;19.04;59.65;99833.03;5069537;28;20414;-61
2023/09/19 09:28:30;;;;;;;23.50;12.18;;;;;;;19.13;59.69;99828.91;5086785;28;20476;-62
2023/09/19 09:31:02;;;;;;;20.58;12.35;;;;;;;19.22;59.58;99815.09;5052611;28;20532;-61
2023/09/19 09:33:29;;;;;;;20.55;13.00;;;;;;;19.24;59.62;99801.84;5034071;28;20040;-61
2023/09/19 09:35:58;;;;;;;34.53;17.35;;;;;;;19.44;59.39;99817.13;5066395;28;20028;-64
2023/09/19 09:38:32;;;;;;;22.00;12.75;;;;;;;19.66;58.96;99811.25;5066495;28;20146;-57
2023/09/19 09:41:06;;;;;;;21.90;11.23;;;;;;;20.17;58.17;99812.00;5065465;28;20036;-59
2023/09/19 09:43:35;;;;;;;26.42;12.27;;;;;;;20.49;57.31;99802.63;5063910;28;20045;-59
2023/09/19 09:46:46;;;;;;;;;;;;;;;20.67;56.61;99800.44;5064463;28;20036;-61
2023/09/19 09:51:39;;;;;;;24.83;12.20;;;;;;;22.08;53.46;99799.25;5064172;28;20842;-62
2023/09/19 09:54:12;;;;;;;19.65;12.77;;;;;;;21.85;53.44;99801.88;5062317;28;20044;-56
2023/09/19 09:57:13;;;;;;;26.73;12.75;;;;;;;21.75;53.45;99800.94;5066256;28;20543;-54
2023/09/19 09:59:50;;;;;;;25.23;12.52;;;;;;;21.36;53.87;99801.38;5072223;28;20056;-57
2023/09/19 10:02:24;;;;;;;20.23;12.40;;;;;;;20.69;54.80;99767.66;5068494;28;20044;-58
2023/09/19 10:04:59;;;;;;;25.88;13.38;;;;;;;20.83;55.24;99782.47;5048716;28;20522;-52
2023/09/19 10:07:28;;;;;;;24.95;12.35;;;;;;;21.06;54.85;99781.56;5049053;28;20155;-55
2023/09/19 10:09:59;;;;;;;20.70;13.93;;;;;;;21.37;54.06;99758.09;5067519;28;20040;-58
2023/09/19 10:12:28;;;;;;;23.85;13.32;;;;;;;22.02;53.02;99778.56;5075974;28;20059;-56
2023/09/19 10:14:57;;;;;;;23.58;12.57;;;;;;;22.39;52.14;99771.97;5055783;28;20037;-58
2023/09/19 10:17:24;;;;;;;29.60;13.30;;;;;;;22.66;51.19;99731.75;5082076;28;20495;-54
2023/09/19 10:19:57;;;;;;;19.92;12.05;;;;;;;24.14;49.11;99767.59;5063425;28;20420;-60
2023/09/19 10:22:24;;;;;;;28.90;12.52;;;;;;;25.05;47.04;99775.25;5066857;28;20050;-60
2023/09/19 10:24:53;;;;;;;30.15;14.02;;;;;;;25.68;45.77;99763.03;5090946;28;20035;-59
2023/09/19 10:27:20;;;;;;;25.83;12.80;;;;;;;27.89;42.33;99765.66;5076029;28;20113;-59
2023/09/19 10:29:50;;;;;;;24.65;13.52;;;;;;;29.56;39.15;99761.66;5063907;28;20517;-59
2023/09/19 10:32:19;;;;;;;19.17;13.82;;;;;;;30.75;36.92;99770.28;5065253;28;20066;-57
2023/09/19 10:34:47;;;;;;;23.20;12.90;;;;;;;31.57;34.76;99738.94;5073054;28;20052;-61
2023/09/19 10:37:16;;;;;;;23.90;12.57;;;;;;;32.16;33.80;99761.25;5046285;28;20052;-59
2023/09/19 10:39:46;;;;;;;19.92;12.07;;;;;;;32.48;33.06;99753.72;5067305;28;20048;-58
2023/09/19 10:42:17;;;;;;;17.80;12.90;;;;;;;32.26;32.69;99756.41;5071541;28;20037;-57
2023/09/19 10:44:45;;;;;;;18.23;11.98;;;;;;;32.39;32.89;99747.63;5063272;28;20040;-59
2023/09/19 10:47:13;;;;;;;19.48;12.80;;;;;;;33.11;31.79;99750.16;5076038;28;20180;-59
2023/09/19 10:49:46;;;;;;;23.05;13.13;;;;;;;32.76;31.57;99719.66;5084082;28;20071;-59
2023/09/19 10:52:19;;;;;;;20.92;12.98;;;;;;;33.67;31.15;99742.03;5068219;28;20048;-60
2023/09/19 10:54:51;;;;;;;19.40;14.13;;;;;;;34.57;29.41;99750.69;5052523;28;20037;-59
2023/09/19 10:57:23;;;;;;;20.25;13.27;;;;;;;34.36;29.28;99742.75;5073833;28;20178;-60
2023/09/19 11:00:23;;;;;;;22.45;13.13;;;;;;;34.43;29.74;99746.31;5071211;28;20032;-60
2023/09/19 11:03:12;;;;;;;17.15;11.48;;;;;;;33.63;29.97;99738.91;5055459;28;20155;-61
2023/09/19 11:05:40;;;;;;;19.85;13.63;;;;;;;33.50;30.49;99731.56;5088249;28;20051;-60
2023/09/19 11:08:07;;;;;;;15.30;12.63;;;;;;;34.10;29.46;99721.91;5101434;28;20511;-63
2023/09/19 11:10:49;;;;;;;21.25;12.77;;;;;;;33.85;29.94;99723.47;5060658;28;20048;-60
2023/09/19 11:13:31;;;;;;;15.68;11.70;;;;;;;34.45;29.21;99725.31;5081684;28;20043;-60
2023/09/19 11:16:00;;;;;;;22.13;12.50;;;;;;;34.74;29.01;99733.09;5065359;28;20049;-61
2023/09/19 11:18:41;;;;;;;18.23;13.52;;;;;;;34.57;28.87;99725.53;5086899;28;20407;-60
2023/09/19 11:21:33;;;;;;;14.95;12.43;;;;;;;34.16;29.27;99726.50;5079903;28;20547;-59
2023/09/19 11:24:12;;;;;;;19.13;12.60;;;;;;;34.52;28.90;99722.63;5071807;28;20048;-60
2023/09/19 11:26:47;;;;;;;;;;;;;;;34.37;29.54;99725.53;5073427;28;20063;-60
2023/09/19 11:29:30;;;;;;;13.82;12.25;;;;;;;33.81;29.57;99716.84;5079932;28;19927;-61
2023/09/19 11:31:59;;;;;;;23.50;12.88;;;;;;;34.25;29.53;99719.06;5059852;28;20068;-64
2023/09/19 11:34:44;;;;;;;19.27;12.80;;;;;;;33.77;29.72;99705.59;5070372;28;20574;-63
2023/09/19 11:37:13;;;;;;;16.65;12.38;;;;;;;32.82;31.04;99701.88;5065131;28;20052;-61